Time;durP1;ratioP1;P1;durP2;ratioP2;P2;SDS_P1;SDS_P2;PMS_P1;PMS_P2;Temp;Humidity;BMP_temperature;BMP_pressure;BME280_temperature;BME280_humidity;BME280_pressure;Samples;Min_cycle;Max_cycle;Signal;HPM_P1;HPM_P2
2022/01/21 00:01:31;;;;;;;46.38;26.42;;;-0.50;97.10;;;;;;6184613;23;20008;-64
2022/01/21 00:03:57;;;;;;;45.70;26.95;;;-0.40;97.00;;;;;;6184574;23;20297;-65
2022/01/21 00:06:23;;;;;;;45.80;25.95;;;-0.40;97.00;;;;;;6184715;23;20007;-65
2022/01/21 00:08:51;;;;;;;45.40;26.02;;;-0.40;96.80;;;;;;6184263;23;20009;-64
2022/01/21 00:11:17;;;;;;;45.22;25.02;;;-0.40;96.90;;;;;;6184431;23;20076;-65
2022/01/21 00:13:43;;;;;;;43.28;25.00;;;-0.40;97.00;;;;;;6184522;23;20084;-64
2022/01/21 00:16:16;;;;;;;46.13;25.25;;;-0.40;96.80;;;;;;6184586;23;20052;-64
2022/01/21 00:18:45;;;;;;;42.10;24.13;;;-0.40;96.80;;;;;;6184415;23;20004;-63
2022/01/21 00:32:09;;;;;;;42.28;24.02;;;-0.40;96.90;;;;;;6184331;23;20016;-65
2022/01/21 00:34:35;;;;;;;43.50;23.98;;;-0.40;96.80;;;;;;6184100;23;20060;-66
2022/01/21 00:37:01;;;;;;;41.38;24.10;;;-0.40;96.70;;;;;;6184145;23;20348;-65
2022/01/21 00:39:30;;;;;;;41.70;23.90;;;-0.40;96.90;;;;;;6184274;23;20021;-65
2022/01/21 00:42:08;;;;;;;41.53;24.23;;;-0.40;96.90;;;;;;6184098;23;20029;-64
2022/01/21 00:44:34;;;;;;;41.85;24.63;;;-0.30;96.80;;;;;;6184260;23;20017;-64
2022/01/21 00:46:59;;;;;;;40.50;23.50;;;-0.30;96.80;;;;;;6183819;23;20032;-64
2022/01/21 00:49:25;;;;;;;42.55;24.42;;;-0.30;96.80;;;;;;6184008;23;20001;-66
2022/01/21 00:51:51;;;;;;;40.05;23.55;;;-0.20;96.80;;;;;;6184268;23;20009;-64
2022/01/21 00:54:17;;;;;;;41.67;24.70;;;-0.20;96.80;;;;;;6183967;23;20333;-64
2022/01/21 00:56:43;;;;;;;44.95;24.85;;;-0.20;96.80;;;;;;6183334;23;20013;-65
2022/01/21 00:59:09;;;;;;;43.00;24.17;;;-0.20;96.70;;;;;;6183228;23;20386;-64
2022/01/21 01:01:35;;;;;;;41.88;24.50;;;-0.20;96.70;;;;;;6183243;23;19994;-66
2022/01/21 01:04:01;;;;;;;43.72;24.42;;;-0.20;96.70;;;;;;6183602;23;20001;-65
2022/01/21 01:06:26;;;;;;;45.05;26.08;;;-0.20;96.70;;;;;;6183721;23;20005;-65
2022/01/21 01:08:53;;;;;;;42.10;23.95;;;-0.20;96.70;;;;;;6183695;23;20001;-65
2022/01/21 01:22:19;;;;;;;41.65;24.67;;;-0.10;96.20;;;;;;6183277;23;20087;-64
2022/01/21 01:29:57;;;;;;;36.67;22.67;;;0.00;95.60;;;;;;6183556;23;20075;-65
2022/01/21 01:32:24;;;;;;;38.15;22.45;;;0.00;95.40;;;;;;6183642;23;20004;-65
2022/01/21 01:34:50;;;;;;;36.25;21.40;;;0.10;95.10;;;;;;6183532;23;20005;-67
2022/01/21 01:37:33;;;;;;;34.78;20.63;;;0.10;94.90;;;;;;6183519;23;20012;-65
2022/01/21 01:43:04;;;;;;;34.53;20.98;;;0.10;94.90;;;;;;6183248;23;20016;-64
2022/01/21 01:51:00;;;;;;;32.60;19.35;;;0.20;94.50;;;;;;6183722;23;20055;-64
2022/01/21 01:53:49;;;;;;;30.67;18.33;;;0.20;94.00;;;;;;6183767;23;20071;-65
2022/01/21 01:56:19;;;;;;;30.42;17.20;;;0.20;93.80;;;;;;6183313;23;20020;-65
2022/01/21 01:58:44;;;;;;;26.80;16.15;;;0.30;93.40;;;;;;6183451;23;20025;-66
2022/01/21 02:01:11;;;;;;;25.08;13.98;;;0.30;92.80;;;;;;6183354;23;19997;-65
2022/01/21 02:03:37;;;;;;;20.05;11.45;;;0.20;91.60;;;;;;6183181;23;19997;-65
2022/01/21 02:06:03;;;;;;;15.80;8.90;;;0.20;90.70;;;;;;6183304;23;20055;-66
2022/01/21 02:08:30;;;;;;;25.45;11.77;;;0.20;87.60;;;;;;6183459;23;20000;-66
2022/01/21 02:10:56;;;;;;;56.20;22.30;;;0.10;87.80;;;;;;6183544;23;20020;-65
2022/01/21 02:13:33;;;;;;;32.20;14.27;;;0.10;87.80;;;;;;6183280;23;20005;-66
2022/01/21 02:21:38;;;;;;;14.38;8.40;;;-0.10;85.90;;;;;;6183253;23;20055;-66
2022/01/21 02:24:25;;;;;;;14.93;7.40;;;-0.20;86.30;;;;;;6183396;23;19997;-63
2022/01/21 02:26:52;;;;;;;11.57;6.10;;;-0.20;84.10;;;;;;6182592;23;20048;-65
2022/01/21 02:29:30;;;;;;;9.65;5.13;;;-0.30;82.60;;;;;;6183596;23;20005;-66
2022/01/21 02:31:58;;;;;;;10.63;5.28;;;-0.30;82.60;;;;;;6183946;23;20376;-65
2022/01/21 02:34:24;;;;;;;10.25;5.18;;;-0.40;82.50;;;;;;6183223;23;20005;-65
2022/01/21 02:36:50;;;;;;;9.02;5.03;;;-0.50;82.10;;;;;;6183338;23;20009;-65
2022/01/21 02:39:16;;;;;;;8.75;4.70;;;-0.60;82.10;;;;;;6183648;23;20001;-64
2022/01/21 02:41:42;;;;;;;8.65;4.72;;;-0.60;81.10;;;;;;6183480;23;20028;-65
2022/01/21 02:44:13;;;;;;;9.70;4.78;;;-0.70;81.10;;;;;;6183246;23;20005;-65
2022/01/21 02:46:41;;;;;;;8.48;4.30;;;-0.70;80.80;;;;;;6183156;23;20077;-65
2022/01/21 02:49:07;;;;;;;8.30;4.63;;;-0.70;80.60;;;;;;6183450;23;20004;-66
2022/01/21 02:51:33;;;;;;;8.13;4.47;;;-0.70;80.60;;;;;;6183452;23;20001;-66
2022/01/21 02:54:05;;;;;;;9.18;4.57;;;-0.80;80.30;;;;;;6183677;23;20032;-65
2022/01/21 02:56:36;;;;;;;11.13;4.68;;;-0.80;80.00;;;;;;6183075;23;20025;-64
2022/01/21 02:59:04;;;;;;;8.88;4.40;;;-0.80;79.70;;;;;;6183560;23;20357;-64
2022/01/21 03:01:32;;;;;;;9.18;4.80;;;-0.80;79.50;;;;;;6182745;23;20001;-65
2022/01/21 03:03:58;;;;;;;9.07;4.70;;;-0.90;79.50;;;;;;6183039;23;20497;-65
2022/01/21 03:06:24;;;;;;;11.45;5.30;;;-0.90;79.70;;;;;;6183090;23;20025;-65
2022/01/21 03:08:52;;;;;;;9.95;4.95;;;-0.90;79.40;;;;;;6183461;23;20047;-65
2022/01/21 03:11:19;;;;;;;9.45;4.85;;;-0.90;79.30;;;;;;6183362;23;20008;-65
2022/01/21 03:13:45;;;;;;;9.75;5.65;;;-1.00;79.40;;;;;;6183103;23;20011;-65
2022/01/21 03:16:11;;;;;;;7.25;4.25;;;-1.00;79.30;;;;;;6183107;23;20036;-66
2022/01/21 03:18:37;;;;;;;10.77;5.05;;;-1.00;79.70;;;;;;6183017;23;20020;-66
2022/01/21 03:21:03;;;;;;;9.55;5.05;;;-1.00;79.70;;;;;;6182182;23;20053;-65
2022/01/21 03:23:30;;;;;;;7.90;4.65;;;-1.10;80.00;;;;;;6182999;23;20072;-64
2022/01/21 03:25:56;;;;;;;10.77;5.00;;;-1.10;80.20;;;;;;6183184;23;20021;-66
2022/01/21 03:28:21;;;;;;;9.02;4.60;;;-1.10;80.40;;;;;;6182804;23;20028;-66
2022/01/21 03:30:50;;;;;;;11.38;4.95;;;-1.10;79.80;;;;;;6183189;23;20417;-65
2022/01/21 03:33:16;;;;;;;9.05;4.50;;;-1.10;80.30;;;;;;6182936;23;19998;-66
2022/01/21 03:35:42;;;;;;;8.68;5.00;;;-1.10;80.20;;;;;;6183155;23;20009;-66
2022/01/21 03:38:08;;;;;;;7.93;4.80;;;-1.10;80.20;;;;;;6182943;23;20091;-66
2022/01/21 03:40:34;;;;;;;8.63;4.47;;;-1.10;80.00;;;;;;6183305;23;20382;-66
2022/01/21 03:42:59;;;;;;;9.77;4.70;;;-1.10;80.60;;;;;;6183212;23;20033;-67
2022/01/21 03:45:25;;;;;;;10.85;5.15;;;-1.10;80.20;;;;;;6183990;23;20761;-65
2022/01/21 03:47:52;;;;;;;8.80;4.95;;;-1.20;80.10;;;;;;6184951;23;20005;-65
2022/01/21 03:50:39;;;;;;;10.52;5.03;;;-1.20;79.80;;;;;;6184366;23;20012;-66
2022/01/21 03:53:05;;;;;;;10.13;5.13;;;-1.20;79.90;;;;;;6184289;23;20059;-64
2022/01/21 03:55:31;;;;;;;10.55;5.13;;;-1.30;79.90;;;;;;6184870;23;20009;-65
2022/01/21 03:57:59;;;;;;;9.70;4.85;;;-1.30;79.90;;;;;;6184875;23;20001;-66
2022/01/21 04:00:29;;;;;;;9.20;5.22;;;-1.30;79.70;;;;;;6184607;23;20072;-65
2022/01/21 04:02:55;;;;;;;9.55;4.90;;;-1.40;79.40;;;;;;6184800;23;20654;-66
2022/01/21 04:05:21;;;;;;;8.65;4.63;;;-1.40;79.60;;;;;;6184448;23;20001;-67
2022/01/21 04:07:47;;;;;;;9.88;4.85;;;-1.40;79.60;;;;;;6184286;23;20015;-66
2022/01/21 04:10:12;;;;;;;9.95;5.00;;;-1.50;79.90;;;;;;6184559;23;20409;-67
2022/01/21 04:12:38;;;;;;;10.75;5.00;;;-1.50;79.60;;;;;;6184756;23;20005;-65
2022/01/21 04:15:05;;;;;;;9.20;4.68;;;-1.50;80.10;;;;;;6184654;23;20001;-65
2022/01/21 04:17:31;;;;;;;9.35;4.88;;;-1.50;79.40;;;;;;6184367;23;20075;-65
2022/01/21 04:19:56;;;;;;;10.60;5.25;;;-1.50;79.50;;;;;;6184602;23;20064;-64
2022/01/21 04:22:22;;;;;;;8.93;5.35;;;-1.60;79.80;;;;;;6184254;23;20069;-64
2022/01/21 04:24:49;;;;;;;10.15;5.25;;;-1.60;79.80;;;;;;6184387;23;20081;-65
2022/01/21 04:27:19;;;;;;;8.80;4.95;;;-1.70;79.80;;;;;;6184560;23;20005;-64
2022/01/21 04:29:45;;;;;;;8.40;4.80;;;-1.70;79.50;;;;;;6184480;23;20016;-65
2022/01/21 04:32:10;;;;;;;8.93;4.50;;;-1.70;79.40;;;;;;6184171;23;20329;-65
2022/01/21 04:34:37;;;;;;;8.35;4.70;;;-1.70;79.40;;;;;;6184636;23;20001;-66
2022/01/21 04:37:08;;;;;;;9.02;4.60;;;-1.80;79.30;;;;;;6184186;23;20334;-63
2022/01/21 04:39:39;;;;;;;8.80;5.10;;;-1.80;79.20;;;;;;6184538;23;20023;-65
2022/01/21 04:47:32;;;;;;;14.57;8.05;;;-1.90;78.10;;;;;;6184392;23;20028;-65
2022/01/21 04:49:58;;;;;;;15.25;7.72;;;-1.90;78.20;;;;;;6184271;23;20005;-65
2022/01/21 04:52:24;;;;;;;18.33;10.20;;;-2.00;78.70;;;;;;6184418;23;20501;-67
2022/01/21 04:54:50;;;;;;;19.17;10.18;;;-2.00;78.30;;;;;;6184513;23;20298;-68
2022/01/21 04:57:17;;;;;;;17.08;8.68;;;-2.00;77.80;;;;;;6157120;23;20005;-67
2022/01/21 04:59:42;;;;;;;13.52;7.13;;;-2.10;77.70;;;;;;6184309;23;20033;-65
2022/01/21 05:02:08;;;;;;;11.65;7.35;;;-2.20;77.50;;;;;;6184195;23;20005;-67
2022/01/21 05:04:35;;;;;;;13.38;7.30;;;-2.20;77.00;;;;;;6183933;23;19998;-66
2022/01/21 05:07:03;;;;;;;11.13;7.20;;;-2.20;76.50;;;;;;6184028;23;20377;-66
2022/01/21 05:09:31;;;;;;;13.00;6.70;;;-2.20;76.40;;;;;;6183985;23;20004;-65
2022/01/21 05:11:57;;;;;;;10.23;5.97;;;-2.30;76.40;;;;;;6184248;23;20055;-66
2022/01/21 05:14:28;;;;;;;13.90;7.32;;;-2.30;76.10;;;;;;6184082;23;20080;-65
2022/01/21 05:17:02;;;;;;;10.95;5.93;;;-2.30;75.90;;;;;;6183823;23;20005;-65
2022/01/21 05:19:28;;;;;;;12.98;6.65;;;-2.30;75.40;;;;;;6184129;23;20028;-66
2022/01/21 05:21:54;;;;;;;11.65;6.18;;;-2.30;75.60;;;;;;6183556;23;19997;-66
2022/01/21 05:24:21;;;;;;;10.27;5.65;;;-2.30;75.40;;;;;;6157708;23;20005;-66
2022/01/21 05:26:56;;;;;;;11.63;6.47;;;-2.30;75.10;;;;;;6184096;23;20060;-64
2022/01/21 05:29:23;;;;;;;12.95;7.30;;;-2.40;75.10;;;;;;6184039;23;20009;-66
2022/01/21 05:31:50;;;;;;;12.68;7.55;;;-2.40;75.00;;;;;;6183915;23;20005;-65
2022/01/21 05:34:16;;;;;;;14.25;7.47;;;-2.40;75.20;;;;;;6184202;23;20067;-65
2022/01/21 05:36:41;;;;;;;14.10;7.40;;;-2.50;74.80;;;;;;6183458;23;20364;-65
2022/01/21 05:39:09;;;;;;;14.13;7.60;;;-2.50;75.00;;;;;;6183656;23;20080;-65
2022/01/21 05:41:34;;;;;;;12.40;7.55;;;-2.50;74.90;;;;;;6157646;23;20317;-65
2022/01/21 05:44:09;;;;;;;12.45;6.60;;;-2.60;75.20;;;;;;6183685;23;20104;-65
2022/01/21 05:49:31;;;;;;;12.00;6.75;;;-2.60;75.20;;;;;;6159119;23;20005;-66
2022/01/21 05:52:04;;;;;;;27.15;12.80;;;-2.60;75.40;;;;;;6183949;23;20068;-66
2022/01/21 05:54:30;;;;;;;;;;;-2.70;75.50;;;;;;6184681;23;20011;-66
2022/01/21 05:56:56;;;;;;;15.50;9.20;;;-2.70;75.40;;;;;;6183135;23;19912;-67
2022/01/21 05:59:22;;;;;;;16.08;8.93;;;-2.70;75.40;;;;;;6183542;23;19997;-65
2022/01/21 06:01:48;;;;;;;16.20;8.80;;;-2.70;75.50;;;;;;6183666;23;20033;-66
2022/01/21 06:04:14;;;;;;;19.05;9.30;;;-2.70;75.60;;;;;;6183700;23;20004;-65
2022/01/21 06:06:40;;;;;;;17.30;8.80;;;-2.80;75.40;;;;;;6183399;23;20076;-64
2022/01/21 06:09:07;;;;;;;19.17;10.30;;;-2.80;75.60;;;;;;6183067;23;20005;-65
2022/01/21 06:11:33;;;;;;;16.80;9.30;;;-2.80;75.40;;;;;;6183212;23;20005;-65
2022/01/21 06:14:00;;;;;;;22.13;11.32;;;-2.80;76.00;;;;;;6183461;23;20001;-66
2022/01/21 06:16:26;;;;;;;19.92;10.30;;;-2.80;75.50;;;;;;6182834;23;20329;-65
2022/01/21 06:18:52;;;;;;;16.88;9.50;;;-2.80;75.40;;;;;;6183476;23;20004;-65
2022/01/21 06:21:18;;;;;;;16.52;9.18;;;-2.80;75.20;;;;;;6183178;23;20410;-65
2022/01/21 06:23:44;;;;;;;18.13;9.75;;;-2.80;75.20;;;;;;6183040;23;20001;-65
2022/01/21 06:26:09;;;;;;;14.27;8.45;;;-2.80;75.20;;;;;;6183042;23;20005;-65
2022/01/21 06:28:35;;;;;;;16.88;8.27;;;-2.80;75.30;;;;;;6156822;23;20059;-65
2022/01/21 06:31:01;;;;;;;15.10;8.07;;;-2.80;75.30;;;;;;6182935;23;20489;-65
2022/01/21 06:33:27;;;;;;;16.13;8.95;;;-2.80;75.50;;;;;;6156769;23;20009;-65
2022/01/21 06:35:53;;;;;;;15.38;8.07;;;-2.70;75.50;;;;;;6183377;23;20505;-65
2022/01/21 06:38:20;;;;;;;15.82;8.77;;;-2.70;75.70;;;;;;6183860;23;20005;-67
2022/01/21 06:40:46;;;;;;;16.08;8.45;;;-2.70;75.20;;;;;;6183377;23;20057;-66
2022/01/21 06:43:13;;;;;;;17.40;7.85;;;-2.70;75.40;;;;;;6183350;23;20120;-67
2022/01/21 06:45:39;;;;;;;17.23;8.40;;;-2.70;75.60;;;;;;6182938;23;20028;-65
2022/01/21 06:48:05;;;;;;;15.30;7.72;;;-2.60;75.60;;;;;;6182838;23;20005;-65
2022/01/21 06:50:33;;;;;;;12.57;7.00;;;-2.60;75.50;;;;;;6183171;23;20072;-66
2022/01/21 06:52:59;;;;;;;14.60;7.80;;;-2.60;75.60;;;;;;6183267;23;20009;-64
2022/01/21 06:55:25;;;;;;;15.35;8.10;;;-2.50;75.30;;;;;;6183014;23;20420;-66
2022/01/21 06:57:51;;;;;;;14.75;8.00;;;-2.50;75.20;;;;;;6183013;23;20013;-66
2022/01/21 07:00:19;;;;;;;14.80;7.93;;;-2.40;75.50;;;;;;6182988;23;20508;-66
2022/01/21 07:02:49;;;;;;;15.48;8.18;;;-2.40;75.20;;;;;;6183040;23;20079;-65
2022/01/21 07:05:20;;;;;;;15.43;8.05;;;-2.40;74.90;;;;;;6182909;23;20051;-66
2022/01/21 07:07:46;;;;;;;16.60;9.07;;;-2.30;75.00;;;;;;6183321;23;20005;-64
2022/01/21 07:10:14;;;;;;;13.25;7.90;;;-2.40;75.10;;;;;;6183265;23;20059;-64
2022/01/21 07:12:41;;;;;;;15.50;8.98;;;-2.40;75.10;;;;;;6182464;23;20068;-66
2022/01/21 07:15:09;;;;;;;15.80;7.97;;;-2.40;75.40;;;;;;6182768;23;20063;-69
2022/01/21 07:17:35;;;;;;;19.13;8.95;;;-2.30;75.60;;;;;;6182748;23;20006;-66
2022/01/21 07:20:01;;;;;;;15.65;7.93;;;-2.20;74.60;;;;;;6183084;23;20023;-66
2022/01/21 07:22:27;;;;;;;16.05;8.70;;;-2.10;74.30;;;;;;6184635;23;20004;-65
2022/01/21 07:24:53;;;;;;;21.08;10.82;;;-2.10;74.60;;;;;;6185428;23;20009;-66
2022/01/21 07:27:19;;;;;;;16.92;8.32;;;-2.10;74.50;;;;;;6185563;23;20005;-67
2022/01/21 07:29:44;;;;;;;16.73;9.38;;;-2.10;74.40;;;;;;6184923;23;20465;-66
2022/01/21 07:32:10;;;;;;;21.50;10.82;;;-2.00;74.90;;;;;;6184923;23;20025;-67
2022/01/21 07:34:36;;;;;;;37.13;16.75;;;-1.90;74.70;;;;;;6184856;23;20005;-65
2022/01/21 07:37:02;;;;;;;27.60;11.55;;;-1.70;74.40;;;;;;6184366;23;20496;-65
2022/01/21 07:39:28;;;;;;;21.13;9.95;;;-1.70;73.60;;;;;;6185339;23;20427;-66
2022/01/21 07:41:54;;;;;;;15.95;8.32;;;-1.60;73.30;;;;;;6184807;23;19997;-66
2022/01/21 07:44:20;;;;;;;14.07;7.43;;;-1.60;73.50;;;;;;6184601;23;20001;-67
2022/01/21 07:46:46;;;;;;;13.75;7.20;;;-1.60;73.60;;;;;;6184525;23;20012;-67
2022/01/21 07:49:12;;;;;;;14.50;7.43;;;-1.50;72.60;;;;;;6183184;23;20001;-66
2022/01/21 07:51:40;;;;;;;13.57;6.15;;;-1.40;72.10;;;;;;6158288;23;20016;-66
2022/01/21 07:54:06;;;;;;;12.80;5.78;;;-1.30;71.60;;;;;;6184041;23;20005;-66
2022/01/21 07:56:35;;;;;;;10.88;5.50;;;-1.30;72.00;;;;;;6183798;23;20017;-66
2022/01/21 07:59:06;;;;;;;14.25;6.68;;;-1.20;71.40;;;;;;6183732;23;20425;-65
2022/01/21 08:01:31;;;;;;;13.77;6.63;;;-1.10;70.40;;;;;;6183329;23;20000;-66
2022/01/21 08:03:57;;;;;;;15.82;6.75;;;-1.20;71.10;;;;;;6184206;23;20061;-68
2022/01/21 08:06:23;;;;;;;15.35;6.50;;;-1.20;71.10;;;;;;6184650;23;20001;-67
2022/01/21 08:08:49;;;;;;;11.98;6.15;;;-1.20;70.70;;;;;;6184665;23;20001;-67
2022/01/21 08:11:15;;;;;;;12.23;5.82;;;-1.20;70.60;;;;;;6184200;23;20076;-66
2022/01/21 08:13:40;;;;;;;12.25;6.07;;;-1.30;70.60;;;;;;6184158;23;20005;-67
2022/01/21 08:16:06;;;;;;;16.08;7.43;;;-1.30;71.10;;;;;;6183607;23;20055;-67
2022/01/21 08:18:32;;;;;;;19.08;8.70;;;-1.20;70.70;;;;;;6182729;23;20001;-66
2022/01/21 08:20:58;;;;;;;14.15;7.22;;;-1.20;71.00;;;;;;6157565;23;20008;-66
2022/01/21 08:23:23;;;;;;;14.98;6.65;;;-1.10;70.30;;;;;;6184381;23;20100;-66
2022/01/21 08:25:49;;;;;;;14.77;6.78;;;-1.10;70.50;;;;;;6184854;23;20314;-66
2022/01/21 08:28:15;;;;;;;13.98;6.00;;;-1.10;69.80;;;;;;6184205;23;20001;-66
2022/01/21 08:30:40;;;;;;;15.82;6.60;;;-1.00;70.10;;;;;;6184146;23;20009;-68
2022/01/21 08:33:06;;;;;;;15.07;7.03;;;-1.00;69.90;;;;;;6184008;23;20005;-68
2022/01/21 08:35:33;;;;;;;13.68;6.60;;;-1.00;70.10;;;;;;6184183;23;20090;-66
2022/01/21 08:37:59;;;;;;;15.23;6.97;;;-0.90;70.40;;;;;;6184115;23;20009;-66
2022/01/21 08:40:25;;;;;;;16.42;7.22;;;-0.80;70.60;;;;;;6184249;23;20165;-66
2022/01/21 08:42:52;;;;;;;15.50;6.50;;;-0.70;70.00;;;;;;6184504;23;20008;-68
2022/01/21 08:45:18;;;;;;;12.30;6.50;;;-0.60;69.80;;;;;;6184169;23;20029;-67
2022/01/21 08:47:44;;;;;;;15.00;7.75;;;-0.50;68.60;;;;;;6157395;23;20016;-65
2022/01/21 08:50:13;;;;;;;16.27;7.35;;;-0.40;68.80;;;;;;6184282;23;20032;-66
2022/01/21 08:52:41;;;;;;;13.73;6.80;;;-0.30;68.30;;;;;;6157805;23;20071;-67
2022/01/21 08:55:19;;;;;;;8.98;4.60;;;-0.30;68.20;;;;;;6184386;23;20009;-65
2022/01/21 08:57:47;;;;;;;14.70;6.93;;;-0.20;66.50;;;;;;6184246;23;20005;-65
2022/01/21 09:00:13;;;;;;;11.95;5.90;;;-0.20;67.10;;;;;;6183932;23;20072;-65
2022/01/21 09:02:39;;;;;;;10.73;5.35;;;-0.10;66.70;;;;;;6183645;23;20079;-66
2022/01/21 09:05:05;;;;;;;9.15;4.78;;;-0.10;67.00;;;;;;6184172;23;19997;-66
2022/01/21 09:07:31;;;;;;;8.82;4.40;;;0.00;66.60;;;;;;6183977;23;20005;-66
2022/01/21 09:09:57;;;;;;;9.43;5.30;;;0.10;65.70;;;;;;6183604;23;20034;-66
2022/01/21 09:12:23;;;;;;;8.25;4.45;;;0.10;65.40;;;;;;6183481;23;20001;-67
2022/01/21 09:14:50;;;;;;;9.80;4.95;;;0.20;65.00;;;;;;6183778;23;20001;-66
2022/01/21 09:17:17;;;;;;;13.93;5.90;;;0.30;65.60;;;;;;6183808;23;20063;-67
2022/01/21 09:19:42;;;;;;;11.30;6.03;;;0.50;64.90;;;;;;6183814;23;19997;-66
2022/01/21 09:22:08;;;;;;;13.35;6.15;;;0.70;64.70;;;;;;6183675;23;20012;-68
2022/01/21 09:24:34;;;;;;;8.93;4.72;;;0.80;64.20;;;;;;6183776;23;20032;-66
2022/01/21 09:27:01;;;;;;;8.55;4.30;;;1.20;62.70;;;;;;6183712;23;20012;-66
2022/01/21 09:29:26;;;;;;;9.65;5.20;;;1.30;61.90;;;;;;6184125;23;20329;-66
2022/01/21 09:31:52;;;;;;;9.30;4.70;;;1.50;61.50;;;;;;6183622;23;20001;-66
2022/01/21 09:34:19;;;;;;;10.88;5.32;;;1.40;60.60;;;;;;6183570;23;20001;-67
2022/01/21 09:36:45;;;;;;;9.32;4.95;;;1.30;61.70;;;;;;6183476;23;20314;-67
2022/01/21 09:39:11;;;;;;;9.75;4.97;;;1.30;60.60;;;;;;6183805;23;20008;-67
2022/01/21 09:41:37;;;;;;;9.80;5.07;;;1.30;60.70;;;;;;6183736;23;20039;-67
2022/01/21 09:44:05;;;;;;;12.20;5.57;;;1.20;61.30;;;;;;6183578;23;20005;-66
2022/01/21 09:46:36;;;;;;;9.32;4.07;;;1.10;62.00;;;;;;6157240;23;20033;-67
2022/01/21 09:49:27;;;;;;;8.95;4.10;;;1.00;61.40;;;;;;6157620;23;20392;-67
2022/01/21 09:51:54;;;;;;;11.57;4.68;;;1.30;61.00;;;;;;6183231;23;20485;-66
2022/01/21 09:54:21;;;;;;;10.25;5.10;;;1.20;61.30;;;;;;6184185;23;20555;-67
2022/01/21 09:56:47;;;;;;;10.75;5.32;;;1.30;60.60;;;;;;6157222;23;20024;-66
2022/01/21 09:59:26;;;;;;;12.77;6.38;;;1.20;60.90;;;;;;6183907;23;20488;-68
2022/01/21 10:02:03;;;;;;;10.65;4.90;;;1.20;61.90;;;;;;6183365;23;20001;-66
2022/01/21 10:04:35;;;;;;;9.05;4.20;;;1.40;61.10;;;;;;6183653;23;20006;-66
2022/01/21 10:07:02;;;;;;;9.25;4.30;;;1.40;60.50;;;;;;6183450;23;20055;-66
2022/01/21 10:09:28;;;;;;;8.18;3.58;;;1.40;59.90;;;;;;6183283;23;20079;-66
2022/01/21 10:11:56;;;;;;;8.57;3.17;;;1.30;59.50;;;;;;6183389;23;20001;-66
2022/01/21 10:14:31;;;;;;;10.57;3.70;;;1.30;59.60;;;;;;6183289;23;20001;-67
2022/01/21 10:16:58;;;;;;;8.13;3.90;;;1.50;58.00;;;;;;6183069;23;20028;-66
2022/01/21 10:19:27;;;;;;;8.43;3.80;;;1.40;58.50;;;;;;6183234;23;20548;-66
2022/01/21 10:22:02;;;;;;;10.63;4.68;;;1.60;58.50;;;;;;6183243;23;19997;-66
2022/01/21 10:24:28;;;;;;;8.63;4.00;;;2.00;59.30;;;;;;6183173;23;20425;-67
2022/01/21 10:26:56;;;;;;;9.77;5.00;;;2.60;58.20;;;;;;6183301;23;20009;-68
2022/01/21 10:29:22;;;;;;;11.27;4.80;;;3.30;57.10;;;;;;6183199;23;20463;-66
2022/01/21 10:31:58;;;;;;;11.98;5.00;;;3.60;56.10;;;;;;6183306;23;20005;-67
2022/01/21 10:34:30;;;;;;;12.63;5.65;;;3.30;56.90;;;;;;6183303;23;20028;-67
2022/01/21 10:37:06;;;;;;;10.80;4.80;;;3.40;57.10;;;;;;6182943;23;20020;-66
2022/01/21 10:39:34;;;;;;;7.32;3.67;;;3.50;55.00;;;;;;6183267;23;20056;-67
2022/01/21 10:42:01;;;;;;;10.63;4.15;;;3.00;54.70;;;;;;6183045;23;20001;-67
2022/01/21 10:44:30;;;;;;;9.25;4.05;;;2.70;55.10;;;;;;6183101;23;20374;-67
2022/01/21 10:47:06;;;;;;;8.25;3.63;;;2.20;55.80;;;;;;6182922;23;20009;-67
2022/01/21 10:49:32;;;;;;;8.70;3.92;;;1.80;56.70;;;;;;6183066;23;20333;-68
2022/01/21 10:51:58;;;;;;;10.43;4.30;;;1.60;57.50;;;;;;6183338;23;20138;-66
2022/01/21 10:54:30;;;;;;;8.27;3.65;;;1.30;58.10;;;;;;6183536;23;20081;-68
2022/01/21 10:57:07;;;;;;;13.20;6.22;;;1.20;57.90;;;;;;6184947;23;20001;-66
2022/01/21 10:59:53;;;;;;;12.80;6.57;;;1.10;59.00;;;;;;6185346;23;20035;-66
2022/01/21 11:02:54;;;;;;;9.73;4.38;;;1.00;59.60;;;;;;6184899;23;20047;-66
2022/01/21 11:05:30;;;;;;;12.13;5.28;;;0.80;59.30;;;;;;6107466;23;20439;-65
2022/01/21 11:08:08;;;;;;;12.80;5.88;;;0.90;59.70;;;;;;6158706;23;20342;-66
2022/01/21 11:10:40;;;;;;;10.93;5.65;;;0.90;59.90;;;;;;6185094;23;20001;-66
2022/01/21 11:13:20;;;;;;;12.63;5.32;;;0.70;61.10;;;;;;6185112;23;20423;-66
2022/01/21 11:15:50;;;;;;;10.18;4.20;;;0.60;60.60;;;;;;6184938;23;20059;-66
2022/01/21 11:18:18;;;;;;;10.95;5.40;;;0.60;60.00;;;;;;6184935;23;20044;-67
2022/01/21 11:20:48;;;;;;;9.73;4.38;;;0.50;61.30;;;;;;6184856;23;20457;-66
2022/01/21 11:23:15;;;;;;;10.25;4.88;;;0.50;61.60;;;;;;6184903;23;20001;-65
2022/01/21 11:25:48;;;;;;;7.95;4.18;;;0.50;61.40;;;;;;6184910;23;20009;-67
2022/01/21 11:28:15;;;;;;;;;;;0.40;61.40;;;;;;6184927;23;20008;-67
2022/01/21 11:30:41;;;;;;;11.63;6.28;;;0.30;62.60;;;;;;6184928;23;20003;-67
2022/01/21 11:33:07;;;;;;;11.13;6.40;;;0.30;63.60;;;;;;6185026;23;20100;-66
2022/01/21 11:35:33;;;;;;;13.52;6.70;;;0.30;63.50;;;;;;6184579;23;20333;-68
2022/01/21 11:38:11;;;;;;;10.88;6.25;;;0.30;63.90;;;;;;6184834;23;20005;-68
2022/01/21 11:40:38;;;;;;;8.75;4.63;;;0.30;63.80;;;;;;6184879;23;20413;-65
2022/01/21 11:43:05;;;;;;;9.27;4.07;;;0.30;62.40;;;;;;6184731;23;20432;-67
2022/01/21 11:45:54;;;;;;;9.70;4.93;;;0.30;61.80;;;;;;6184710;23;20009;-67
2022/01/21 11:50:52;;;;;;;11.50;5.20;;;0.20;62.40;;;;;;6195501;23;20032;-67
2022/01/21 11:53:43;;;;;;;9.27;5.13;;;0.20;62.40;;;;;;6185003;23;20005;-67
2022/01/21 11:56:31;;;;;;;10.82;5.40;;;0.10;63.30;;;;;;6184628;23;20020;-67
2022/01/21 11:59:08;;;;;;;12.48;5.68;;;0.20;62.60;;;;;;6184827;23;20005;-66
2022/01/21 12:01:49;;;;;;;9.77;4.95;;;0.10;63.30;;;;;;6184878;23;20002;-66
2022/01/21 12:04:39;;;;;;;12.60;6.03;;;0.10;63.30;;;;;;6184759;23;20438;-67
2022/01/21 12:07:33;;;;;;;13.65;6.50;;;0.20;63.40;;;;;;6184511;23;19997;-68
2022/01/21 12:10:09;;;;;;;10.55;5.47;;;0.20;63.70;;;;;;6184444;23;20429;-67
2022/01/21 12:13:00;;;;;;;13.07;5.80;;;0.20;63.70;;;;;;6184878;23;20421;-67
2022/01/21 12:16:21;;;;;;;13.68;6.68;;;0.10;64.00;;;;;;6184830;23;20005;-67
2022/01/21 12:20:59;;;;;;;9.75;5.10;;;0.20;63.10;;;;;;6184618;23;20047;-67
2022/01/21 12:23:27;;;;;;;10.38;5.75;;;0.20;63.30;;;;;;6184752;23;20430;-66
2022/01/21 12:26:12;;;;;;;10.93;5.72;;;0.30;62.50;;;;;;6184747;23;20500;-67
2022/01/21 12:28:58;;;;;;;11.60;6.03;;;0.20;62.70;;;;;;6184530;23;20001;-65
2022/01/21 12:31:53;;;;;;;11.40;5.32;;;0.30;62.90;;;;;;6158487;23;20001;-67
2022/01/21 12:34:19;;;;;;;11.00;5.55;;;0.30;62.70;;;;;;6169083;23;20008;-65
2022/01/21 12:37:05;;;;;;;10.98;5.85;;;0.00;63.20;;;;;;6184052;23;20017;-67
2022/01/21 12:39:36;;;;;;;14.65;6.65;;;0.10;63.80;;;;;;6184817;23;20381;-66
2022/01/21 12:42:21;;;;;;;11.38;5.50;;;0.10;63.80;;;;;;6184152;23;19997;-67
2022/01/21 12:44:52;;;;;;;10.50;5.55;;;0.10;62.70;;;;;;6184591;23;20404;-66
2022/01/21 12:47:32;;;;;;;12.90;6.78;;;0.20;63.30;;;;;;6184273;23;20384;-66
2022/01/21 12:50:34;;;;;;;12.48;5.75;;;0.10;63.80;;;;;;6184336;23;20029;-67
2022/01/21 12:58:19;;;;;;;11.88;6.10;;;0.10;63.20;;;;;;6184236;23;20032;-66
2022/01/21 13:00:45;;;;;;;14.30;6.93;;;0.10;63.60;;;;;;6184229;23;20052;-66
2022/01/21 13:03:43;;;;;;;15.55;7.28;;;0.00;64.20;;;;;;6183673;23;19997;-65
2022/01/21 13:06:33;;;;;;;11.68;5.25;;;0.00;64.20;;;;;;6184332;23;20012;-66
2022/01/21 13:09:08;;;;;;;13.07;6.30;;;0.00;63.90;;;;;;6183996;23;20085;-67
2022/01/21 13:11:39;;;;;;;12.27;6.57;;;0.00;64.50;;;;;;6183915;23;20077;-66
2022/01/21 13:17:06;;;;;;;12.52;6.47;;;0.00;64.10;;;;;;6194216;23;20016;-66
2022/01/21 13:19:55;;;;;;;12.27;5.65;;;-0.10;64.80;;;;;;6184162;23;20495;-68
2022/01/21 13:22:28;;;;;;;11.73;6.32;;;-0.10;65.20;;;;;;6183861;23;20056;-66
2022/01/21 13:25:16;;;;;;;13.75;6.10;;;-0.20;65.40;;;;;;6183774;23;20084;-66
2022/01/21 13:27:51;;;;;;;13.38;6.38;;;-0.20;65.20;;;;;;6183920;23;20055;-67
2022/01/21 13:30:21;;;;;;;15.52;6.40;;;-0.20;65.50;;;;;;6184000;23;20405;-65
2022/01/21 13:32:47;;;;;;;11.27;5.68;;;-0.10;65.50;;;;;;6183842;23;20008;-66
2022/01/21 13:35:21;;;;;;;14.27;6.57;;;-0.20;65.10;;;;;;6186436;23;20009;-66
2022/01/21 13:38:14;;;;;;;13.02;6.53;;;-0.10;65.40;;;;;;6183516;23;20444;-66
2022/01/21 13:40:40;;;;;;;16.30;6.65;;;-0.10;65.20;;;;;;6183755;23;20088;-67
2022/01/21 13:43:32;;;;;;;14.90;7.03;;;-0.10;65.20;;;;;;6183774;23;20152;-68
2022/01/21 13:46:09;;;;;;;9.93;5.10;;;-0.10;65.10;;;;;;6176746;23;20330;-67
2022/01/21 13:48:36;;;;;;;12.45;5.32;;;0.00;64.40;;;;;;6157106;23;20012;-66
2022/01/21 13:51:06;;;;;;;11.07;5.63;;;-0.10;64.80;;;;;;6183768;23;20001;-68
2022/01/21 13:53:31;;;;;;;11.57;4.40;;;-0.10;65.00;;;;;;6183926;23;20001;-66
2022/01/21 13:56:04;;;;;;;13.43;6.07;;;-0.10;64.40;;;;;;6183778;23;20085;-68